sensor_id;sensor_type;location;lat;lon;timestamp;temperature;humidity
2002;DHT22;1003;48.002;7.788;2023-08-17T00:00:08;20.20;99.90
2002;DHT22;1003;48.002;7.788;2023-08-17T00:02:38;20.20;99.90
2002;DHT22;1003;48.002;7.788;2023-08-17T00:05:06;20.20;99.90
2002;DHT22;1003;48.002;7.788;2023-08-17T00:07:36;20.20;99.90
2002;DHT22;1003;48.002;7.788;2023-08-17T00:10:03;20.10;99.90
2002;DHT22;1003;48.002;7.788;2023-08-17T00:12:31;20.10;99.90
2002;DHT22;1003;48.002;7.788;2023-08-17T00:14:58;20.10;99.90
2002;DHT22;1003;48.002;7.788;2023-08-17T00:17:25;20.00;99.90
2002;DHT22;1003;48.002;7.788;2023-08-17T00:19:55;20.00;99.90
2002;DHT22;1003;48.002;7.788;2023-08-17T00:22:22;20.00;99.90
2002;DHT22;1003;48.002;7.788;2023-08-17T00:24:50;19.90;99.90
2002;DHT22;1003;48.002;7.788;2023-08-17T00:27:17;19.90;99.90
2002;DHT22;1003;48.002;7.788;2023-08-17T00:29:44;19.90;99.90
2002;DHT22;1003;48.002;7.788;2023-08-17T00:32:11;19.80;99.90
2002;DHT22;1003;48.002;7.788;2023-08-17T00:34:38;19.80;99.90
2002;DHT22;1003;48.002;7.788;2023-08-17T00:37:05;19.80;99.90
2002;DHT22;1003;48.002;7.788;2023-08-17T00:39:33;19.80;99.90
2002;DHT22;1003;48.002;7.788;2023-08-17T00:42:01;19.80;99.90
2002;DHT22;1003;48.002;7.788;2023-08-17T00:44:29;19.80;99.90
2002;DHT22;1003;48.002;7.788;2023-08-17T00:46:56;19.80;99.90
2002;DHT22;1003;48.002;7.788;2023-08-17T00:49:23;19.80;99.90
2002;DHT22;1003;48.002;7.788;2023-08-17T00:51:50;19.70;99.90
2002;DHT22;1003;48.002;7.788;2023-08-17T00:54:23;19.70;99.90
2002;DHT22;1003;48.002;7.788;2023-08-17T00:56:53;19.70;99.90
2002;DHT22;1003;48.002;7.788;2023-08-17T00:59:22;19.70;99.90
2002;DHT22;1003;48.002;7.788;2023-08-17T01:01:50;19.60;99.90
2002;DHT22;1003;48.002;7.788;2023-08-17T01:04:17;19.60;99.90
2002;DHT22;1003;48.002;7.788;2023-08-17T01:06:44;19.60;99.90
2002;DHT22;1003;48.002;7.788;2023-08-17T01:09:11;19.60;99.90
2002;DHT22;1003;48.002;7.788;2023-08-17T01:11:45;19.50;99.90
2002;DHT22;1003;48.002;7.788;2023-08-17T01:14:24;19.60;99.90
2002;DHT22;1003;48.002;7.788;2023-08-17T01:17:03;19.50;99.90
2002;DHT22;1003;48.002;7.788;2023-08-17T01:19:35;19.50;99.90
2002;DHT22;1003;48.002;7.788;2023-08-17T01:22:05;19.50;99.90
2002;DHT22;1003;48.002;7.788;2023-08-17T01:24:36;19.40;99.90
2002;DHT22;1003;48.002;7.788;2023-08-17T01:27:03;19.40;99.90
2002;DHT22;1003;48.002;7.788;2023-08-17T01:29:30;19.40;99.90
2002;DHT22;1003;48.002;7.788;2023-08-17T01:32:06;19.40;99.90
2002;DHT22;1003;48.002;7.788;2023-08-17T01:34:41;19.40;99.90
2002;DHT22;1003;48.002;7.788;2023-08-17T01:37:14;19.30;99.90
2002;DHT22;1003;48.002;7.788;2023-08-17T01:39:51;19.30;99.90
2002;DHT22;1003;48.002;7.788;2023-08-17T01:42:22;19.30;99.90
2002;DHT22;1003;48.002;7.788;2023-08-17T01:44:51;19.30;99.90
2002;DHT22;1003;48.002;7.788;2023-08-17T01:47:20;19.30;99.90
2002;DHT22;1003;48.002;7.788;2023-08-17T01:49:48;19.30;99.90
2002;DHT22;1003;48.002;7.788;2023-08-17T01:52:15;19.30;99.90
2002;DHT22;1003;48.002;7.788;2023-08-17T01:54:42;19.30;99.90
2002;DHT22;1003;48.002;7.788;2023-08-17T01:57:10;19.30;99.90
2002;DHT22;1003;48.002;7.788;2023-08-17T01:59:37;19.30;99.90
2002;DHT22;1003;48.002;7.788;2023-08-17T02:02:04;19.30;99.90
2002;DHT22;1003;48.002;7.788;2023-08-17T02:04:31;19.30;99.90
2002;DHT22;1003;48.002;7.788;2023-08-17T02:06:58;19.30;99.90
2002;DHT22;1003;48.002;7.788;2023-08-17T02:09:28;19.30;99.90
2002;DHT22;1003;48.002;7.788;2023-08-17T02:11:55;19.30;99.90
2002;DHT22;1003;48.002;7.788;2023-08-17T02:14:23;19.30;99.90
2002;DHT22;1003;48.002;7.788;2023-08-17T02:16:51;19.20;99.90
2002;DHT22;1003;48.002;7.788;2023-08-17T02:19:19;19.20;99.90
2002;DHT22;1003;48.002;7.788;2023-08-17T02:21:46;19.20;99.90
2002;DHT22;1003;48.002;7.788;2023-08-17T02:24:13;19.10;99.90
2002;DHT22;1003;48.002;7.788;2023-08-17T02:26:40;19.10;99.90
2002;DHT22;1003;48.002;7.788;2023-08-17T02:29:06;19.10;99.90
2002;DHT22;1003;48.002;7.788;2023-08-17T02:31:35;19.10;99.90
2002;DHT22;1003;48.002;7.788;2023-08-17T02:34:02;19.00;99.90
2002;DHT22;1003;48.002;7.788;2023-08-17T02:36:30;19.00;99.90
2002;DHT22;1003;48.002;7.788;2023-08-17T02:38:57;19.00;99.90
2002;DHT22;1003;48.002;7.788;2023-08-17T02:41:24;19.00;99.90
2002;DHT22;1003;48.002;7.788;2023-08-17T02:43:51;19.00;99.90
2002;DHT22;1003;48.002;7.788;2023-08-17T02:46:19;19.00;99.90
2002;DHT22;1003;48.002;7.788;2023-08-17T02:48:47;19.00;99.90
2002;DHT22;1003;48.002;7.788;2023-08-17T02:51:15;19.00;99.90
2002;DHT22;1003;48.002;7.788;2023-08-17T02:53:42;19.10;99.90
2002;DHT22;1003;48.002;7.788;2023-08-17T02:56:09;19.10;99.90
2002;DHT22;1003;48.002;7.788;2023-08-17T02:58:37;19.10;99.90
2002;DHT22;1003;48.002;7.788;2023-08-17T03:01:06;19.20;99.90
2002;DHT22;1003;48.002;7.788;2023-08-17T03:03:33;19.20;99.90
2002;DHT22;1003;48.002;7.788;2023-08-17T03:06:02;19.20;99.90
2002;DHT22;1003;48.002;7.788;2023-08-17T03:08:29;19.20;99.90
2002;DHT22;1003;48.002;7.788;2023-08-17T03:10:56;19.20;99.90
2002;DHT22;1003;48.002;7.788;2023-08-17T03:13:23;19.30;99.90
2002;DHT22;1003;48.002;7.788;2023-08-17T03:15:50;19.30;99.90
2002;DHT22;1003;48.002;7.788;2023-08-17T03:18:17;19.30;99.90
2002;DHT22;1003;48.002;7.788;2023-08-17T03:20:44;19.30;99.90
2002;DHT22;1003;48.002;7.788;2023-08-17T03:23:13;19.30;99.90
2002;DHT22;1003;48.002;7.788;2023-08-17T03:25:40;19.20;99.90
2002;DHT22;1003;48.002;7.788;2023-08-17T03:28:07;19.30;99.90
2002;DHT22;1003;48.002;7.788;2023-08-17T03:30:34;19.30;99.90
2002;DHT22;1003;48.002;7.788;2023-08-17T03:33:01;19.20;99.90
2002;DHT22;1003;48.002;7.788;2023-08-17T03:35:28;19.30;99.90
2002;DHT22;1003;48.002;7.788;2023-08-17T03:37:55;19.30;99.90
2002;DHT22;1003;48.002;7.788;2023-08-17T03:40:24;19.40;99.90
2002;DHT22;1003;48.002;7.788;2023-08-17T03:42:51;19.30;99.90
2002;DHT22;1003;48.002;7.788;2023-08-17T03:45:18;19.30;99.90
2002;DHT22;1003;48.002;7.788;2023-08-17T03:47:45;19.40;99.90
2002;DHT22;1003;48.002;7.788;2023-08-17T03:50:12;19.40;99.90
2002;DHT22;1003;48.002;7.788;2023-08-17T03:52:39;19.40;99.90
2002;DHT22;1003;48.002;7.788;2023-08-17T03:55:06;19.40;99.90
2002;DHT22;1003;48.002;7.788;2023-08-17T03:57:35;19.40;99.90
2002;DHT22;1003;48.002;7.788;2023-08-17T04:00:02;19.40;99.90
2002;DHT22;1003;48.002;7.788;2023-08-17T04:02:31;19.50;99.90
2002;DHT22;1003;48.002;7.788;2023-08-17T04:04:58;19.50;99.90
2002;DHT22;1003;48.002;7.788;2023-08-17T04:07:25;19.40;99.90
2002;DHT22;1003;48.002;7.788;2023-08-17T04:09:52;19.40;99.90
2002;DHT22;1003;48.002;7.788;2023-08-17T04:12:19;19.40;99.90
2002;DHT22;1003;48.002;7.788;2023-08-17T04:14:47;19.40;99.90
2002;DHT22;1003;48.002;7.788;2023-08-17T04:17:14;19.40;99.90
2002;DHT22;1003;48.002;7.788;2023-08-17T04:19:41;19.40;99.90
2002;DHT22;1003;48.002;7.788;2023-08-17T04:22:08;19.40;99.90
2002;DHT22;1003;48.002;7.788;2023-08-17T04:24:35;19.40;99.90
2002;DHT22;1003;48.002;7.788;2023-08-17T04:27:03;19.40;99.90
2002;DHT22;1003;48.002;7.788;2023-08-17T04:29:30;19.50;99.90
2002;DHT22;1003;48.002;7.788;2023-08-17T04:31:59;19.50;99.90
2002;DHT22;1003;48.002;7.788;2023-08-17T04:34:27;19.50;99.90
2002;DHT22;1003;48.002;7.788;2023-08-17T04:36:54;19.50;99.90
2002;DHT22;1003;48.002;7.788;2023-08-17T04:39:21;19.50;99.90
2002;DHT22;1003;48.002;7.788;2023-08-17T04:41:48;19.50;99.90
2002;DHT22;1003;48.002;7.788;2023-08-17T04:44:15;19.50;99.90
2002;DHT22;1003;48.002;7.788;2023-08-17T04:46:42;19.50;99.90
2002;DHT22;1003;48.002;7.788;2023-08-17T04:49:10;19.50;99.90
2002;DHT22;1003;48.002;7.788;2023-08-17T04:51:37;19.50;99.90
2002;DHT22;1003;48.002;7.788;2023-08-17T04:54:04;19.40;99.90
2002;DHT22;1003;48.002;7.788;2023-08-17T04:56:31;19.40;99.90
2002;DHT22;1003;48.002;7.788;2023-08-17T04:58:58;19.30;99.90
2002;DHT22;1003;48.002;7.788;2023-08-17T05:01:25;19.30;99.90
2002;DHT22;1003;48.002;7.788;2023-08-17T05:03:54;19.30;99.90
2002;DHT22;1003;48.002;7.788;2023-08-17T05:06:23;19.30;99.90
2002;DHT22;1003;48.002;7.788;2023-08-17T05:08:50;19.30;99.90
2002;DHT22;1003;48.002;7.788;2023-08-17T05:11:17;19.40;99.90
2002;DHT22;1003;48.002;7.788;2023-08-17T05:13:44;19.40;99.90
2002;DHT22;1003;48.002;7.788;2023-08-17T05:16:11;19.40;99.90
2002;DHT22;1003;48.002;7.788;2023-08-17T05:18:38;19.40;99.90
2002;DHT22;1003;48.002;7.788;2023-08-17T05:21:05;19.40;99.90
2002;DHT22;1003;48.002;7.788;2023-08-17T05:23:33;19.40;99.90
2002;DHT22;1003;48.002;7.788;2023-08-17T05:26:00;19.50;99.90
2002;DHT22;1003;48.002;7.788;2023-08-17T05:28:30;19.60;99.90
2002;DHT22;1003;48.002;7.788;2023-08-17T05:31:03;19.60;99.90
2002;DHT22;1003;48.002;7.788;2023-08-17T05:33:31;19.60;99.90
2002;DHT22;1003;48.002;7.788;2023-08-17T05:35:58;19.60;99.90
2002;DHT22;1003;48.002;7.788;2023-08-17T05:38:25;19.70;99.90
2002;DHT22;1003;48.002;7.788;2023-08-17T05:40:56;19.70;99.90
2002;DHT22;1003;48.002;7.788;2023-08-17T05:43:24;19.80;99.90
2002;DHT22;1003;48.002;7.788;2023-08-17T05:45:53;19.80;99.90
2002;DHT22;1003;48.002;7.788;2023-08-17T05:48:20;19.80;99.90
2002;DHT22;1003;48.002;7.788;2023-08-17T05:50:48;19.80;99.90
2002;DHT22;1003;48.002;7.788;2023-08-17T05:53:15;19.80;99.90
2002;DHT22;1003;48.002;7.788;2023-08-17T05:55:42;19.80;99.90
2002;DHT22;1003;48.002;7.788;2023-08-17T05:58:10;19.80;99.90
2002;DHT22;1003;48.002;7.788;2023-08-17T06:00:37;19.80;99.90
2002;DHT22;1003;48.002;7.788;2023-08-17T06:03:07;19.80;99.90
2002;DHT22;1003;48.002;7.788;2023-08-17T06:05:34;19.80;99.90
2002;DHT22;1003;48.002;7.788;2023-08-17T06:08:01;19.80;99.90
2002;DHT22;1003;48.002;7.788;2023-08-17T06:10:29;19.90;99.90
2002;DHT22;1003;48.002;7.788;2023-08-17T06:12:56;20.00;99.90
2002;DHT22;1003;48.002;7.788;2023-08-17T06:15:25;20.10;99.90
2002;DHT22;1003;48.002;7.788;2023-08-17T06:17:52;20.20;99.90
2002;DHT22;1003;48.002;7.788;2023-08-17T06:20:19;20.30;99.90
2002;DHT22;1003;48.002;7.788;2023-08-17T06:22:47;20.30;99.90
2002;DHT22;1003;48.002;7.788;2023-08-17T06:25:15;20.40;99.90
2002;DHT22;1003;48.002;7.788;2023-08-17T06:27:42;20.50;99.90
2002;DHT22;1003;48.002;7.788;2023-08-17T06:30:11;20.60;99.90
2002;DHT22;1003;48.002;7.788;2023-08-17T06:32:40;20.70;99.90
2002;DHT22;1003;48.002;7.788;2023-08-17T06:35:07;20.90;99.90
2002;DHT22;1003;48.002;7.788;2023-08-17T06:37:35;20.90;99.90
2002;DHT22;1003;48.002;7.788;2023-08-17T06:40:02;21.00;99.90
2002;DHT22;1003;48.002;7.788;2023-08-17T06:42:31;21.00;99.90
2002;DHT22;1003;48.002;7.788;2023-08-17T06:44:58;21.20;99.90
2002;DHT22;1003;48.002;7.788;2023-08-17T06:47:25;21.50;99.90
2002;DHT22;1003;48.002;7.788;2023-08-17T06:49:54;21.70;99.90
2002;DHT22;1003;48.002;7.788;2023-08-17T06:52:24;21.90;99.90
2002;DHT22;1003;48.002;7.788;2023-08-17T06:54:51;22.00;99.90
2002;DHT22;1003;48.002;7.788;2023-08-17T06:57:18;22.10;99.90
2002;DHT22;1003;48.002;7.788;2023-08-17T06:59:47;22.10;99.90
2002;DHT22;1003;48.002;7.788;2023-08-17T07:02:14;21.90;99.90
2002;DHT22;1003;48.002;7.788;2023-08-17T07:04:41;21.90;99.90
2002;DHT22;1003;48.002;7.788;2023-08-17T07:07:09;21.90;99.90
2002;DHT22;1003;48.002;7.788;2023-08-17T07:09:36;21.90;99.90
2002;DHT22;1003;48.002;7.788;2023-08-17T07:12:04;21.90;99.90
2002;DHT22;1003;48.002;7.788;2023-08-17T07:14:31;21.90;99.90
2002;DHT22;1003;48.002;7.788;2023-08-17T07:16:59;21.80;99.90
2002;DHT22;1003;48.002;7.788;2023-08-17T07:19:26;21.80;99.90
2002;DHT22;1003;48.002;7.788;2023-08-17T07:21:53;21.90;99.90
2002;DHT22;1003;48.002;7.788;2023-08-17T07:24:21;21.90;99.90
2002;DHT22;1003;48.002;7.788;2023-08-17T07:26:48;21.70;99.90
2002;DHT22;1003;48.002;7.788;2023-08-17T07:29:15;21.70;99.90
2002;DHT22;1003;48.002;7.788;2023-08-17T07:31:42;21.70;99.90
2002;DHT22;1003;48.002;7.788;2023-08-17T07:34:10;21.70;99.90
2002;DHT22;1003;48.002;7.788;2023-08-17T07:36:37;21.80;99.90
2002;DHT22;1003;48.002;7.788;2023-08-17T07:39:04;21.70;99.90
2002;DHT22;1003;48.002;7.788;2023-08-17T07:41:33;21.70;99.90
2002;DHT22;1003;48.002;7.788;2023-08-17T07:44:00;21.80;99.90
2002;DHT22;1003;48.002;7.788;2023-08-17T07:46:27;21.80;99.90
2002;DHT22;1003;48.002;7.788;2023-08-17T07:48:53;21.80;99.90
2002;DHT22;1003;48.002;7.788;2023-08-17T07:51:21;21.90;99.90
2002;DHT22;1003;48.002;7.788;2023-08-17T07:53:48;21.90;99.90
2002;DHT22;1003;48.002;7.788;2023-08-17T07:56:15;22.00;99.90
2002;DHT22;1003;48.002;7.788;2023-08-17T07:58:43;22.00;99.90
2002;DHT22;1003;48.002;7.788;2023-08-17T08:01:10;22.10;99.90
2002;DHT22;1003;48.002;7.788;2023-08-17T08:03:37;22.10;99.90
2002;DHT22;1003;48.002;7.788;2023-08-17T08:06:04;22.00;99.90
2002;DHT22;1003;48.002;7.788;2023-08-17T08:08:31;22.00;99.90
2002;DHT22;1003;48.002;7.788;2023-08-17T08:10:58;22.00;99.90
2002;DHT22;1003;48.002;7.788;2023-08-17T08:13:25;21.90;99.90
2002;DHT22;1003;48.002;7.788;2023-08-17T08:15:54;21.90;99.90
2002;DHT22;1003;48.002;7.788;2023-08-17T08:18:21;21.80;99.90
2002;DHT22;1003;48.002;7.788;2023-08-17T08:20:48;21.80;99.90
2002;DHT22;1003;48.002;7.788;2023-08-17T08:23:15;21.80;99.90
2002;DHT22;1003;48.002;7.788;2023-08-17T08:25:42;21.80;99.90
2002;DHT22;1003;48.002;7.788;2023-08-17T08:28:09;21.80;99.90
2002;DHT22;1003;48.002;7.788;2023-08-17T08:30:36;21.90;99.90
2002;DHT22;1003;48.002;7.788;2023-08-17T08:33:05;21.90;99.90
2002;DHT22;1003;48.002;7.788;2023-08-17T08:35:32;21.90;99.90
2002;DHT22;1003;48.002;7.788;2023-08-17T08:37:59;22.00;99.90
2002;DHT22;1003;48.002;7.788;2023-08-17T08:40:28;22.00;99.90
2002;DHT22;1003;48.002;7.788;2023-08-17T08:42:56;21.90;99.90
2002;DHT22;1003;48.002;7.788;2023-08-17T08:45:23;21.90;99.90
2002;DHT22;1003;48.002;7.788;2023-08-17T08:47:54;22.00;99.90
2002;DHT22;1003;48.002;7.788;2023-08-17T08:50:26;22.10;99.90
2002;DHT22;1003;48.002;7.788;2023-08-17T08:52:59;22.20;99.90
2002;DHT22;1003;48.002;7.788;2023-08-17T08:55:30;22.20;99.90
2002;DHT22;1003;48.002;7.788;2023-08-17T08:58:00;22.30;99.90
2002;DHT22;1003;48.002;7.788;2023-08-17T09:00:30;22.50;99.90
2002;DHT22;1003;48.002;7.788;2023-08-17T09:03:02;22.70;99.90
2002;DHT22;1003;48.002;7.788;2023-08-17T09:05:31;22.70;99.90
2002;DHT22;1003;48.002;7.788;2023-08-17T09:08:02;22.80;99.90
2002;DHT22;1003;48.002;7.788;2023-08-17T09:10:30;23.00;99.90
2002;DHT22;1003;48.002;7.788;2023-08-17T09:12:57;23.30;99.90
2002;DHT22;1003;48.002;7.788;2023-08-17T09:15:24;23.60;99.90
2002;DHT22;1003;48.002;7.788;2023-08-17T09:17:52;23.90;99.90
2002;DHT22;1003;48.002;7.788;2023-08-17T09:20:35;24.00;99.90
2002;DHT22;1003;48.002;7.788;2023-08-17T09:23:11;24.30;99.90
2002;DHT22;1003;48.002;7.788;2023-08-17T09:25:40;24.40;99.90
2002;DHT22;1003;48.002;7.788;2023-08-17T09:28:08;24.40;99.90
2002;DHT22;1003;48.002;7.788;2023-08-17T09:30:52;24.30;99.90
2002;DHT22;1003;48.002;7.788;2023-08-17T09:33:21;24.40;99.90
2002;DHT22;1003;48.002;7.788;2023-08-17T09:35:51;24.40;99.90
2002;DHT22;1003;48.002;7.788;2023-08-17T09:38:19;24.60;99.90
2002;DHT22;1003;48.002;7.788;2023-08-17T09:40:48;24.80;99.90
2002;DHT22;1003;48.002;7.788;2023-08-17T09:43:16;25.10;99.90
2002;DHT22;1003;48.002;7.788;2023-08-17T09:45:47;25.20;99.90
2002;DHT22;1003;48.002;7.788;2023-08-17T09:48:16;25.10;99.90
2002;DHT22;1003;48.002;7.788;2023-08-17T09:50:44;24.70;99.90
2002;DHT22;1003;48.002;7.788;2023-08-17T09:53:15;24.70;99.90
2002;DHT22;1003;48.002;7.788;2023-08-17T09:55:44;24.90;99.90
2002;DHT22;1003;48.002;7.788;2023-08-17T09:58:13;24.90;99.90
2002;DHT22;1003;48.002;7.788;2023-08-17T10:00:44;24.80;99.90
2002;DHT22;1003;48.002;7.788;2023-08-17T10:03:14;24.90;99.90
2002;DHT22;1003;48.002;7.788;2023-08-17T10:05:43;25.10;99.90
2002;DHT22;1003;48.002;7.788;2023-08-17T10:08:18;25.20;99.90
2002;DHT22;1003;48.002;7.788;2023-08-17T10:10:47;25.20;99.90
2002;DHT22;1003;48.002;7.788;2023-08-17T10:13:22;25.10;99.90
2002;DHT22;1003;48.002;7.788;2023-08-17T10:16:01;25.10;99.90
2002;DHT22;1003;48.002;7.788;2023-08-17T10:18:37;25.20;99.90
2002;DHT22;1003;48.002;7.788;2023-08-17T10:21:13;25.30;99.90
2002;DHT22;1003;48.002;7.788;2023-08-17T10:23:46;25.40;99.90
2002;DHT22;1003;48.002;7.788;2023-08-17T10:26:15;25.40;99.90
2002;DHT22;1003;48.002;7.788;2023-08-17T10:28:45;25.50;99.90
2002;DHT22;1003;48.002;7.788;2023-08-17T10:31:12;25.70;99.90
2002;DHT22;1003;48.002;7.788;2023-08-17T10:33:41;25.70;99.90
2002;DHT22;1003;48.002;7.788;2023-08-17T10:36:12;25.70;99.90
2002;DHT22;1003;48.002;7.788;2023-08-17T10:38:41;25.90;99.90
2002;DHT22;1003;48.002;7.788;2023-08-17T10:41:10;25.90;99.90
2002;DHT22;1003;48.002;7.788;2023-08-17T10:43:56;26.10;99.90
2002;DHT22;1003;48.002;7.788;2023-08-17T10:46:33;26.20;99.90
2002;DHT22;1003;48.002;7.788;2023-08-17T10:49:03;26.40;99.90
2002;DHT22;1003;48.002;7.788;2023-08-17T10:51:32;26.50;99.90
2002;DHT22;1003;48.002;7.788;2023-08-17T10:54:02;26.40;99.90
2002;DHT22;1003;48.002;7.788;2023-08-17T10:56:32;26.60;99.90
2002;DHT22;1003;48.002;7.788;2023-08-17T10:59:00;26.80;99.90
2002;DHT22;1003;48.002;7.788;2023-08-17T11:01:35;27.00;99.90
2002;DHT22;1003;48.002;7.788;2023-08-17T11:04:12;27.00;99.90
2002;DHT22;1003;48.002;7.788;2023-08-17T11:06:43;26.90;99.90
2002;DHT22;1003;48.002;7.788;2023-08-17T11:09:11;26.90;99.90
2002;DHT22;1003;48.002;7.788;2023-08-17T11:11:39;27.10;99.90
2002;DHT22;1003;48.002;7.788;2023-08-17T11:14:06;27.30;99.90
2002;DHT22;1003;48.002;7.788;2023-08-17T11:16:33;27.60;99.90
2002;DHT22;1003;48.002;7.788;2023-08-17T11:19:00;27.80;99.90
2002;DHT22;1003;48.002;7.788;2023-08-17T11:21:27;27.90;99.90
2002;DHT22;1003;48.002;7.788;2023-08-17T11:23:58;28.10;99.90
2002;DHT22;1003;48.002;7.788;2023-08-17T11:26:26;28.00;99.90
2002;DHT22;1003;48.002;7.788;2023-08-17T11:28:55;28.00;99.90
2002;DHT22;1003;48.002;7.788;2023-08-17T11:31:23;27.70;99.90
2002;DHT22;1003;48.002;7.788;2023-08-17T11:33:51;27.70;99.90
2002;DHT22;1003;48.002;7.788;2023-08-17T11:36:18;27.90;99.90
2002;DHT22;1003;48.002;7.788;2023-08-17T11:38:47;28.00;99.90
2002;DHT22;1003;48.002;7.788;2023-08-17T11:41:14;28.20;99.90
2002;DHT22;1003;48.002;7.788;2023-08-17T11:43:42;28.20;99.90
2002;DHT22;1003;48.002;7.788;2023-08-17T11:46:12;28.30;99.90
2002;DHT22;1003;48.002;7.788;2023-08-17T11:48:39;28.30;99.90
2002;DHT22;1003;48.002;7.788;2023-08-17T11:51:06;28.30;99.90
2002;DHT22;1003;48.002;7.788;2023-08-17T11:53:34;28.30;99.90
2002;DHT22;1003;48.002;7.788;2023-08-17T11:56:02;28.40;99.90
2002;DHT22;1003;48.002;7.788;2023-08-17T11:58:42;28.50;99.90
2002;DHT22;1003;48.002;7.788;2023-08-17T12:01:12;28.50;99.90
2002;DHT22;1003;48.002;7.788;2023-08-17T12:03:41;28.40;99.90
2002;DHT22;1003;48.002;7.788;2023-08-17T12:06:09;28.40;99.90
2002;DHT22;1003;48.002;7.788;2023-08-17T12:08:38;28.40;99.90
2002;DHT22;1003;48.002;7.788;2023-08-17T12:11:06;28.50;99.90
2002;DHT22;1003;48.002;7.788;2023-08-17T12:13:34;28.40;99.90
2002;DHT22;1003;48.002;7.788;2023-08-17T12:16:01;28.50;99.90
2002;DHT22;1003;48.002;7.788;2023-08-17T12:18:33;28.60;99.90
2002;DHT22;1003;48.002;7.788;2023-08-17T12:21:01;28.90;99.90
2002;DHT22;1003;48.002;7.788;2023-08-17T12:23:28;28.80;99.90
2002;DHT22;1003;48.002;7.788;2023-08-17T12:25:55;28.90;99.90
2002;DHT22;1003;48.002;7.788;2023-08-17T12:28:23;29.00;99.90
2002;DHT22;1003;48.002;7.788;2023-08-17T12:30:58;28.90;99.90
2002;DHT22;1003;48.002;7.788;2023-08-17T12:33:26;29.00;99.90
2002;DHT22;1003;48.002;7.788;2023-08-17T12:35:55;29.20;99.90
2002;DHT22;1003;48.002;7.788;2023-08-17T12:38:24;29.30;99.90
2002;DHT22;1003;48.002;7.788;2023-08-17T12:40:51;29.50;99.90
2002;DHT22;1003;48.002;7.788;2023-08-17T12:43:18;29.60;99.90
2002;DHT22;1003;48.002;7.788;2023-08-17T12:45:45;29.60;99.90
2002;DHT22;1003;48.002;7.788;2023-08-17T12:48:12;29.60;99.90
2002;DHT22;1003;48.002;7.788;2023-08-17T12:50:39;29.80;99.90
2002;DHT22;1003;48.002;7.788;2023-08-17T12:53:08;29.90;99.90
2002;DHT22;1003;48.002;7.788;2023-08-17T12:55:35;30.10;99.90
2002;DHT22;1003;48.002;7.788;2023-08-17T12:58:02;30.40;99.90
2002;DHT22;1003;48.002;7.788;2023-08-17T13:00:30;30.60;99.90
2002;DHT22;1003;48.002;7.788;2023-08-17T13:02:57;30.90;99.90
2002;DHT22;1003;48.002;7.788;2023-08-17T13:05:24;31.00;99.90
2002;DHT22;1003;48.002;7.788;2023-08-17T13:07:51;31.10;99.90
2002;DHT22;1003;48.002;7.788;2023-08-17T13:10:20;31.10;99.90
2002;DHT22;1003;48.002;7.788;2023-08-17T13:12:47;31.00;99.90
2002;DHT22;1003;48.002;7.788;2023-08-17T13:15:14;31.10;99.90
2002;DHT22;1003;48.002;7.788;2023-08-17T13:17:41;31.10;99.90
2002;DHT22;1003;48.002;7.788;2023-08-17T13:20:09;30.90;99.90
2002;DHT22;1003;48.002;7.788;2023-08-17T13:22:37;30.90;99.90
2002;DHT22;1003;48.002;7.788;2023-08-17T13:25:05;30.90;99.90
2002;DHT22;1003;48.002;7.788;2023-08-17T13:27:33;31.00;99.90
2002;DHT22;1003;48.002;7.788;2023-08-17T13:30:00;31.10;99.90
2002;DHT22;1003;48.002;7.788;2023-08-17T13:32:28;31.30;99.90
2002;DHT22;1003;48.002;7.788;2023-08-17T13:34:55;31.00;99.90
2002;DHT22;1003;48.002;7.788;2023-08-17T13:37:22;30.60;99.90
2002;DHT22;1003;48.002;7.788;2023-08-17T13:39:49;30.30;99.90
2002;DHT22;1003;48.002;7.788;2023-08-17T13:42:16;30.20;99.90
2002;DHT22;1003;48.002;7.788;2023-08-17T13:44:45;30.20;99.90
2002;DHT22;1003;48.002;7.788;2023-08-17T13:47:12;30.10;99.90
2002;DHT22;1003;48.002;7.788;2023-08-17T13:49:39;30.10;99.90
2002;DHT22;1003;48.002;7.788;2023-08-17T13:52:06;30.10;99.90
2002;DHT22;1003;48.002;7.788;2023-08-17T13:54:33;30.10;99.90
2002;DHT22;1003;48.002;7.788;2023-08-17T13:57:00;29.80;99.90
2002;DHT22;1003;48.002;7.788;2023-08-17T13:59:30;29.70;99.90
2002;DHT22;1003;48.002;7.788;2023-08-17T14:01:59;29.60;99.90
2002;DHT22;1003;48.002;7.788;2023-08-17T14:04:26;29.60;99.90
2002;DHT22;1003;48.002;7.788;2023-08-17T14:06:53;29.60;99.90
2002;DHT22;1003;48.002;7.788;2023-08-17T14:09:20;29.70;99.90
2002;DHT22;1003;48.002;7.788;2023-08-17T14:11:47;29.70;99.90
2002;DHT22;1003;48.002;7.788;2023-08-17T14:14:16;29.70;99.90
2002;DHT22;1003;48.002;7.788;2023-08-17T14:16:43;30.00;99.90
2002;DHT22;1003;48.002;7.788;2023-08-17T14:19:12;30.10;99.90
2002;DHT22;1003;48.002;7.788;2023-08-17T14:21:39;30.20;99.90
2002;DHT22;1003;48.002;7.788;2023-08-17T14:24:06;30.30;99.90
2002;DHT22;1003;48.002;7.788;2023-08-17T14:26:34;30.50;99.90
2002;DHT22;1003;48.002;7.788;2023-08-17T14:29:01;30.50;99.90
2002;DHT22;1003;48.002;7.788;2023-08-17T14:31:28;30.50;99.90
2002;DHT22;1003;48.002;7.788;2023-08-17T14:33:55;30.40;99.90
2002;DHT22;1003;48.002;7.788;2023-08-17T14:36:24;30.30;99.90
2002;DHT22;1003;48.002;7.788;2023-08-17T14:38:51;30.30;99.90
2002;DHT22;1003;48.002;7.788;2023-08-17T14:41:18;30.10;99.90
2002;DHT22;1003;48.002;7.788;2023-08-17T14:43:45;30.10;99.90
2002;DHT22;1003;48.002;7.788;2023-08-17T14:46:12;30.10;99.90
2002;DHT22;1003;48.002;7.788;2023-08-17T14:48:39;30.20;99.90
2002;DHT22;1003;48.002;7.788;2023-08-17T14:51:06;30.40;99.90
2002;DHT22;1003;48.002;7.788;2023-08-17T14:53:35;30.30;99.90
2002;DHT22;1003;48.002;7.788;2023-08-17T14:56:02;30.10;99.90
2002;DHT22;1003;48.002;7.788;2023-08-17T14:58:29;30.10;99.90
2002;DHT22;1003;48.002;7.788;2023-08-17T15:00:56;30.00;99.90
2002;DHT22;1003;48.002;7.788;2023-08-17T15:03:23;30.00;99.90
2002;DHT22;1003;48.002;7.788;2023-08-17T15:05:53;29.70;99.90
2002;DHT22;1003;48.002;7.788;2023-08-17T15:08:20;29.50;99.90
2002;DHT22;1003;48.002;7.788;2023-08-17T15:10:50;29.30;99.90
2002;DHT22;1003;48.002;7.788;2023-08-17T15:13:17;29.10;99.90
2002;DHT22;1003;48.002;7.788;2023-08-17T15:15:44;29.10;99.90
2002;DHT22;1003;48.002;7.788;2023-08-17T15:18:11;29.10;99.90
2002;DHT22;1003;48.002;7.788;2023-08-17T15:20:38;29.10;99.90
2002;DHT22;1003;48.002;7.788;2023-08-17T15:23:05;29.20;99.90
2002;DHT22;1003;48.002;7.788;2023-08-17T15:25:33;29.20;99.90
2002;DHT22;1003;48.002;7.788;2023-08-17T15:28:01;29.10;99.90
2002;DHT22;1003;48.002;7.788;2023-08-17T15:30:29;29.00;99.90
2002;DHT22;1003;48.002;7.788;2023-08-17T15:32:57;28.80;99.90
2002;DHT22;1003;48.002;7.788;2023-08-17T15:35:24;28.80;99.90
2002;DHT22;1003;48.002;7.788;2023-08-17T15:37:52;28.80;99.90
2002;DHT22;1003;48.002;7.788;2023-08-17T15:40:19;28.80;99.90
2002;DHT22;1003;48.002;7.788;2023-08-17T15:42:46;28.70;99.90
2002;DHT22;1003;48.002;7.788;2023-08-17T15:45:14;28.60;99.90
2002;DHT22;1003;48.002;7.788;2023-08-17T15:47:43;28.60;99.90
2002;DHT22;1003;48.002;7.788;2023-08-17T15:50:10;28.50;99.90
2002;DHT22;1003;48.002;7.788;2023-08-17T15:52:37;28.50;99.90
2002;DHT22;1003;48.002;7.788;2023-08-17T15:55:05;28.50;99.90
2002;DHT22;1003;48.002;7.788;2023-08-17T15:57:33;28.50;99.90
2002;DHT22;1003;48.002;7.788;2023-08-17T16:00:00;28.40;99.90
2002;DHT22;1003;48.002;7.788;2023-08-17T16:02:28;28.40;99.90
2002;DHT22;1003;48.002;7.788;2023-08-17T16:04:55;28.50;99.90
2002;DHT22;1003;48.002;7.788;2023-08-17T16:07:22;28.50;99.90